Time;durP1;ratioP1;P1;durP2;ratioP2;P2;SDS_P1;SDS_P2;PMS_P1;PMS_P2;Temp;Humidity;BMP_temperature;BMP_pressure;BME280_temperature;BME280_humidity;BME280_pressure;Samples;Min_cycle;Max_cycle;Signal;HPM_P1;HPM_P2
2021/08/24 00:01:49;;;;;;;8.10;7.30;;;17.50;99.90;;;;;;5015900;28;20475;-91
2021/08/24 00:04:20;;;;;;;9.03;8.20;;;17.50;99.90;;;;;;5038475;28;20426;-89
2021/08/24 00:06:50;;;;;;;8.33;7.67;;;17.40;99.90;;;;;;5030615;28;20469;-88
2021/08/24 00:09:19;;;;;;;9.53;8.53;;;17.30;99.90;;;;;;5034627;28;20449;-88
2021/08/24 00:11:48;;;;;;;8.60;7.90;;;17.40;99.90;;;;;;5040202;28;20462;-90
2021/08/24 00:14:24;;;;;;;8.93;8.13;;;17.40;99.90;;;;;;5023774;28;20464;-89
2021/08/24 00:17:03;;;;;;;12.30;9.07;;;17.30;99.90;;;;;;5020010;28;20462;-90
2021/08/24 00:19:34;;;;;;;9.40;8.70;;;17.30;99.90;;;;;;5019667;28;20532;-90
2021/08/24 00:22:05;;;;;;;8.43;7.63;;;17.30;99.90;;;;;;5019859;28;20529;-90
2021/08/24 00:24:32;;;;;;;8.10;7.43;;;17.30;99.90;;;;;;5011473;28;20443;-90
2021/08/24 00:27:02;;;;;;;7.23;6.63;;;17.30;99.90;;;;;;5005323;28;20490;-89
2021/08/24 00:29:30;;;;;;;8.33;7.60;;;17.30;99.90;;;;;;5002404;28;20494;-91
2021/08/24 00:32:05;;;;;;;6.57;6.00;;;17.30;99.90;;;;;;4999691;28;20476;-90
2021/08/24 00:34:33;;;;;;;7.57;6.87;;;17.20;99.90;;;;;;5003498;28;20481;-91
2021/08/24 00:37:08;;;;;;;7.40;6.57;;;17.20;99.90;;;;;;5006779;28;20455;-90
2021/08/24 00:39:41;;;;;;;7.00;6.40;;;17.20;99.90;;;;;;4999791;28;20461;-91
2021/08/24 00:42:11;;;;;;;6.40;5.87;;;17.20;99.90;;;;;;5004978;28;20449;-91
2021/08/24 00:44:41;;;;;;;7.23;5.80;;;17.20;99.90;;;;;;5017084;28;20537;-91
2021/08/24 00:47:09;;;;;;;8.20;5.87;;;17.30;99.90;;;;;;5026445;28;20909;-91
2021/08/24 00:49:38;;;;;;;6.03;5.60;;;17.30;99.90;;;;;;5001410;28;20458;-90
2021/08/24 00:52:11;;;;;;;6.27;5.77;;;17.30;99.90;;;;;;4999116;28;20513;-91
2021/08/24 00:54:49;;;;;;;7.27;6.47;;;17.30;99.90;;;;;;5001897;28;20498;-91
2021/08/24 00:57:22;;;;;;;6.90;5.77;;;17.30;99.90;;;;;;5000859;28;20474;-91
2021/08/24 00:59:50;;;;;;;6.67;6.17;;;17.20;99.90;;;;;;5011582;28;20461;-91
2021/08/24 01:02:25;;;;;;;7.90;5.90;;;17.20;99.90;;;;;;5011443;28;20447;-91
2021/08/24 01:04:55;;;;;;;9.10;6.10;;;17.10;99.90;;;;;;5016527;28;20987;-90
2021/08/24 01:07:25;;;;;;;6.47;5.73;;;17.10;99.90;;;;;;5016569;28;20477;-91
2021/08/24 01:10:07;;;;;;;6.93;6.33;;;17.10;99.90;;;;;;5017292;28;20452;-91
2021/08/24 01:12:43;;;;;;;6.23;5.50;;;17.10;99.90;;;;;;5015203;28;20474;-91
2021/08/24 01:15:22;;;;;;;6.70;6.03;;;17.10;99.90;;;;;;5017531;28;20446;-90
2021/08/24 01:17:57;;;;;;;5.80;5.20;;;17.10;99.90;;;;;;5016675;28;20826;-91
2021/08/24 01:20:44;;;;;;;7.20;6.50;;;17.10;99.90;;;;;;5015044;28;20441;-91
2021/08/24 01:23:41;;;;;;;5.83;5.33;;;17.00;99.90;;;;;;5028754;28;20454;-90
2021/08/24 01:26:16;;;;;;;5.90;5.20;;;17.00;99.90;;;;;;5006139;28;20551;-91
2021/08/24 01:29:06;;;;;;;7.47;6.20;;;17.10;99.90;;;;;;4996311;28;20447;-91
2021/08/24 01:31:55;;;;;;;7.00;5.50;;;17.00;99.90;;;;;;4996768;28;20740;-91
2021/08/24 01:34:41;;;;;;;7.03;4.90;;;17.00;99.90;;;;;;4977381;28;20436;-91
2021/08/24 01:37:21;;;;;;;5.93;5.43;;;17.00;99.90;;;;;;4998100;28;20876;-91
2021/08/24 01:39:54;;;;;;;4.50;4.10;;;17.00;99.90;;;;;;4996094;28;20772;-91
2021/08/24 01:42:24;;;;;;;5.40;4.90;;;16.90;99.90;;;;;;4996819;28;20832;-91
2021/08/24 01:45:03;;;;;;;4.27;3.87;;;16.90;99.90;;;;;;4996554;28;20476;-91
2021/08/24 01:47:40;;;;;;;5.30;4.80;;;16.90;99.90;;;;;;4996288;28;20440;-91
2021/08/24 01:50:20;;;;;;;4.90;4.40;;;16.90;99.90;;;;;;5011586;28;20443;-90
2021/08/24 01:52:57;;;;;;;5.73;5.00;;;16.80;99.90;;;;;;5024828;28;20481;-91
2021/08/24 01:55:27;;;;;;;4.47;4.07;;;16.80;99.90;;;;;;5026575;28;20488;-90
2021/08/24 01:58:06;;;;;;;4.73;4.33;;;16.80;99.90;;;;;;5019647;28;20959;-90
2021/08/24 02:00:38;;;;;;;4.67;4.27;;;16.80;99.90;;;;;;4998379;28;20465;-91
2021/08/24 02:03:14;;;;;;;5.17;4.67;;;16.80;99.90;;;;;;4995893;28;20464;-91
2021/08/24 02:05:47;;;;;;;5.10;4.70;;;16.80;99.90;;;;;;4997323;28;20467;-91
2021/08/24 02:08:27;;;;;;;5.47;4.80;;;16.70;99.90;;;;;;4998025;28;20457;-91
2021/08/24 02:10:58;;;;;;;5.00;4.60;;;16.70;99.90;;;;;;5019215;28;20460;-90
2021/08/24 02:13:32;;;;;;;5.23;4.83;;;16.60;99.90;;;;;;5003841;28;20638;-91
2021/08/24 02:16:07;;;;;;;5.00;4.60;;;16.60;99.90;;;;;;4996237;28;20980;-91
2021/08/24 02:18:42;;;;;;;7.50;4.50;;;16.60;99.90;;;;;;5008156;28;21020;-91
2021/08/24 02:21:14;;;;;;;5.37;4.40;;;16.50;99.90;;;;;;5016099;28;20438;-91
2021/08/24 02:23:54;;;;;;;8.53;5.03;;;16.40;99.90;;;;;;4997461;28;20540;-91
2021/08/24 02:26:27;;;;;;;6.23;4.37;;;16.40;99.90;;;;;;4995665;28;21015;-91
2021/08/24 02:29:00;;;;;;;4.73;4.23;;;16.30;99.90;;;;;;4976968;28;20530;-91
2021/08/24 02:31:38;;;;;;;5.30;4.37;;;16.20;99.90;;;;;;4999835;28;20413;-90
2021/08/24 02:34:23;;;;;;;4.70;4.30;;;16.10;99.90;;;;;;5014222;28;20474;-92
2021/08/24 02:36:59;;;;;;;4.83;4.43;;;16.00;99.90;;;;;;5013313;28;20473;-90
2021/08/24 02:39:39;;;;;;;8.03;5.30;;;16.00;99.90;;;;;;5011751;28;20790;-91
2021/08/24 02:42:23;;;;;;;5.07;4.63;;;15.90;99.90;;;;;;5008846;28;20498;-90
2021/08/24 02:44:55;;;;;;;7.10;4.47;;;15.90;99.90;;;;;;5033865;28;21094;-90
2021/08/24 02:47:31;;;;;;;6.50;5.40;;;15.80;99.90;;;;;;5029521;28;20476;-92
2021/08/24 02:49:58;;;;;;;6.20;5.60;;;15.70;99.90;;;;;;5026876;28;20461;-84
2021/08/24 02:52:27;;;;;;;6.03;5.50;;;15.70;99.90;;;;;;5011067;28;20448;-84
2021/08/24 02:54:55;;;;;;;6.50;5.90;;;15.70;99.90;;;;;;5010750;28;20453;-84
2021/08/24 02:57:21;;;;;;;6.77;6.07;;;15.70;99.90;;;;;;5021718;28;20477;-84
2021/08/24 02:59:48;;;;;;;8.00;6.80;;;15.70;99.90;;;;;;5031800;28;20449;-83
2021/08/24 03:02:17;;;;;;;7.00;5.67;;;15.70;99.90;;;;;;5027686;28;20452;-83
2021/08/24 03:04:44;;;;;;;6.80;6.10;;;15.70;99.90;;;;;;5028386;28;20448;-85
2021/08/24 03:07:14;;;;;;;7.50;6.67;;;15.60;99.90;;;;;;5033898;28;20471;-84
2021/08/24 03:09:42;;;;;;;7.77;7.07;;;15.50;99.90;;;;;;5029970;28;20932;-85
2021/08/24 03:12:24;;;;;;;7.50;6.90;;;15.50;99.90;;;;;;5027538;28;20462;-86
2021/08/24 03:14:56;;;;;;;7.37;6.67;;;15.50;99.90;;;;;;5013791;28;20453;-85
2021/08/24 03:17:28;;;;;;;11.53;6.93;;;15.40;99.90;;;;;;5025584;28;20453;-83
2021/08/24 03:20:00;;;;;;;7.30;6.27;;;15.30;99.90;;;;;;5013867;28;20813;-85
2021/08/24 03:22:27;;;;;;;12.10;6.20;;;15.30;99.90;;;;;;5004347;28;20451;-85
2021/08/24 03:24:54;;;;;;;7.73;7.03;;;15.30;99.90;;;;;;5006631;28;20448;-86
2021/08/24 03:27:22;;;;;;;6.60;6.00;;;15.30;99.90;;;;;;5053128;23;20499;-84
2021/08/24 03:29:58;;;;;;;6.97;6.27;;;15.20;99.90;;;;;;5089532;28;20451;-84
2021/08/24 03:32:26;;;;;;;10.60;7.30;;;15.20;99.90;;;;;;5080291;28;20947;-84
2021/08/24 03:34:53;;;;;;;8.73;6.63;;;15.20;99.90;;;;;;5095307;28;20443;-84
2021/08/24 03:37:20;;;;;;;7.07;6.47;;;15.20;99.90;;;;;;5068300;28;20558;-85
2021/08/24 03:39:46;;;;;;;7.70;6.93;;;15.10;99.90;;;;;;5058607;28;20448;-84
2021/08/24 03:42:14;;;;;;;7.47;6.77;;;15.00;99.90;;;;;;5057126;28;20444;-84
2021/08/24 03:44:43;;;;;;;8.37;7.50;;;15.00;99.90;;;;;;5058969;28;20825;-84
2021/08/24 03:47:10;;;;;;;8.07;7.37;;;15.00;99.90;;;;;;5062969;28;20467;-84
2021/08/24 03:49:37;;;;;;;7.63;6.97;;;15.00;99.90;;;;;;5076443;28;20935;-84
2021/08/24 03:52:04;;;;;;;8.10;7.30;;;15.00;99.90;;;;;;5073877;28;20443;-84
2021/08/24 03:54:30;;;;;;;7.80;7.10;;;14.90;99.90;;;;;;5056239;28;20836;-84
2021/08/24 03:56:57;;;;;;;9.13;8.23;;;14.80;99.90;;;;;;5069031;28;20487;-84
2021/08/24 03:59:24;;;;;;;7.77;7.07;;;14.80;99.90;;;;;;5065527;28;20447;-84
2021/08/24 04:01:52;;;;;;;9.30;8.40;;;14.80;99.90;;;;;;5056500;28;20455;-84
2021/08/24 04:04:18;;;;;;;14.00;8.47;;;14.90;99.90;;;;;;5055775;28;20863;-84
2021/08/24 04:06:45;;;;;;;8.47;7.77;;;14.80;99.90;;;;;;5055971;28;20468;-84
2021/08/24 04:09:12;;;;;;;10.30;9.30;;;14.80;99.90;;;;;;5062364;28;20449;-84
2021/08/24 04:11:38;;;;;;;8.90;8.10;;;14.60;99.90;;;;;;5079418;28;20450;-84
2021/08/24 04:14:05;;;;;;;9.50;8.60;;;14.60;99.90;;;;;;5100455;28;20486;-84
2021/08/24 04:16:32;;;;;;;8.87;8.07;;;14.60;99.90;;;;;;5093953;28;20470;-84
2021/08/24 04:19:00;;;;;;;10.30;9.40;;;14.50;99.90;;;;;;5075378;28;20457;-85
2021/08/24 04:21:27;;;;;;;10.37;9.10;;;14.40;99.90;;;;;;5076015;28;20458;-84
2021/08/24 04:23:54;;;;;;;9.90;8.90;;;14.40;99.90;;;;;;5063160;28;20449;-84
2021/08/24 04:26:21;;;;;;;10.17;8.80;;;14.30;99.90;;;;;;5054907;28;20462;-85
2021/08/24 04:28:48;;;;;;;10.23;9.13;;;14.40;99.90;;;;;;5055424;28;20448;-85
2021/08/24 04:31:18;;;;;;;9.70;8.73;;;14.30;99.90;;;;;;5055963;28;20447;-84
2021/08/24 04:33:45;;;;;;;10.07;9.17;;;14.30;99.90;;;;;;5078944;28;20469;-84
2021/08/24 04:36:13;;;;;;;10.50;9.50;;;14.20;99.90;;;;;;5080381;28;20544;-84
2021/08/24 04:38:40;;;;;;;9.60;8.77;;;14.10;99.90;;;;;;5077632;28;21059;-85
2021/08/24 04:41:07;;;;;;;11.60;9.67;;;14.10;99.90;;;;;;5056498;28;20968;-84
2021/08/24 04:43:35;;;;;;;10.17;9.27;;;14.10;99.90;;;;;;5062235;28;20449;-85
2021/08/24 04:46:02;;;;;;;10.93;9.80;;;14.10;99.90;;;;;;5055344;28;20449;-85
2021/08/24 04:48:28;;;;;;;10.70;9.70;;;14.20;99.90;;;;;;5066991;28;20474;-85
2021/08/24 04:50:55;;;;;;;10.27;9.37;;;14.30;99.90;;;;;;5074640;28;20950;-85
2021/08/24 04:53:24;;;;;;;10.37;9.33;;;14.40;99.90;;;;;;5075143;28;20489;-85
2021/08/24 04:55:51;;;;;;;10.90;9.87;;;14.40;99.90;;;;;;5088844;28;20450;-85
2021/08/24 04:58:18;;;;;;;10.00;8.97;;;14.40;99.90;;;;;;5085458;28;20478;-85
2021/08/24 05:00:45;;;;;;;11.80;10.70;;;14.40;99.90;;;;;;5077918;28;20452;-85
2021/08/24 05:03:12;;;;;;;11.90;10.10;;;14.40;99.90;;;;;;5077629;28;20451;-84
2021/08/24 05:05:39;;;;;;;10.87;9.80;;;14.50;99.90;;;;;;5070401;28;20471;-86
2021/08/24 05:08:06;;;;;;;11.60;10.50;;;14.50;99.90;;;;;;5055294;28;20475;-85
2021/08/24 05:10:34;;;;;;;12.20;10.00;;;14.50;99.90;;;;;;5054804;28;20452;-85
2021/08/24 05:13:02;;;;;;;13.27;10.33;;;14.60;99.90;;;;;;5061375;28;20455;-86
2021/08/24 05:15:29;;;;;;;12.57;11.43;;;14.70;99.90;;;;;;5055153;28;20463;-86
2021/08/24 05:17:56;;;;;;;11.87;10.87;;;14.70;99.90;;;;;;5054458;28;20470;-86
2021/08/24 05:20:24;;;;;;;11.30;10.30;;;14.70;99.90;;;;;;5055186;28;20455;-85
2021/08/24 05:22:50;;;;;;;11.77;10.60;;;14.70;99.90;;;;;;5055328;28;20459;-84
2021/08/24 05:25:20;;;;;;;11.23;10.23;;;14.90;99.90;;;;;;5055405;28;20949;-84
2021/08/24 05:27:48;;;;;;;11.93;10.73;;;15.00;99.90;;;;;;5063007;28;20475;-87
2021/08/24 05:30:20;;;;;;;10.40;9.50;;;15.20;99.90;;;;;;5076092;28;20446;-89
2021/08/24 05:32:47;;;;;;;10.63;9.57;;;15.30;99.90;;;;;;5073639;28;20941;-90
2021/08/24 05:35:15;;;;;;;11.07;10.17;;;15.40;99.90;;;;;;5075503;28;20502;-91
2021/08/24 05:37:42;;;;;;;10.63;9.73;;;15.50;99.90;;;;;;5075187;28;20463;-90
2021/08/24 05:40:10;;;;;;;10.57;9.73;;;15.60;99.90;;;;;;5074448;28;20455;-90
2021/08/24 05:42:37;;;;;;;10.90;9.90;;;15.70;99.90;;;;;;5078371;28;20439;-90
2021/08/24 05:45:07;;;;;;;12.33;11.17;;;15.80;99.90;;;;;;5083425;28;20436;-89
2021/08/24 05:47:34;;;;;;;11.13;10.00;;;15.90;99.90;;;;;;5096226;28;20483;-90
2021/08/24 05:50:06;;;;;;;11.07;8.73;;;15.90;99.90;;;;;;5093652;28;20447;-90
2021/08/24 05:52:39;;;;;;;9.80;8.97;;;16.00;99.90;;;;;;5067960;28;20444;-90
2021/08/24 05:55:07;;;;;;;10.90;10.00;;;16.00;99.90;;;;;;5056623;28;20965;-90
2021/08/24 05:57:34;;;;;;;9.23;8.43;;;16.10;99.90;;;;;;5066235;28;20474;-90
2021/08/24 06:00:01;;;;;;;9.43;8.50;;;16.30;99.90;;;;;;5062469;28;20448;-91
2021/08/24 06:02:29;;;;;;;8.60;7.90;;;16.40;99.90;;;;;;5077915;28;20559;-91
2021/08/24 06:04:55;;;;;;;9.20;8.40;;;16.60;99.90;;;;;;5082550;28;20446;-90
2021/08/24 06:07:22;;;;;;;9.20;8.40;;;16.70;99.90;;;;;;5075179;28;20472;-86
2021/08/24 06:09:49;;;;;;;8.40;7.70;;;16.90;99.90;;;;;;5064806;28;20529;-92
2021/08/24 06:12:16;;;;;;;8.60;7.90;;;17.10;99.90;;;;;;5083255;28;20470;-91
2021/08/24 06:15:00;;;;;;;9.13;8.33;;;17.30;99.90;;;;;;5083704;28;20479;-91
2021/08/24 06:17:30;;;;;;;8.00;7.40;;;17.40;99.90;;;;;;5096690;28;20444;-91
2021/08/24 06:20:21;;;;;;;9.10;8.20;;;17.30;99.90;;;;;;5095251;28;20443;-92
2021/08/24 06:22:48;;;;;;;10.80;7.80;;;17.30;99.90;;;;;;5063846;28;20437;-89
2021/08/24 06:25:22;;;;;;;9.67;8.73;;;17.20;99.90;;;;;;5056657;28;20445;-92
2021/08/24 06:27:50;;;;;;;8.57;7.77;;;17.20;99.90;;;;;;5056912;28;20483;-92
2021/08/24 06:30:17;;;;;;;8.67;7.87;;;17.30;99.90;;;;;;5071592;28;20519;-90
2021/08/24 06:32:47;;;;;;;7.27;6.50;;;17.30;99.90;;;;;;5069939;28;20447;-91
2021/08/24 06:35:16;;;;;;;8.57;7.80;;;17.40;99.90;;;;;;5056952;28;20484;-90
2021/08/24 06:37:43;;;;;;;7.47;6.70;;;17.40;99.90;;;;;;5071943;28;20468;-90
2021/08/24 06:40:13;;;;;;;8.30;7.60;;;17.60;99.90;;;;;;5064877;28;20432;-89
2021/08/24 06:42:44;;;;;;;8.37;7.40;;;17.60;99.90;;;;;;5063491;28;20440;-89
2021/08/24 06:45:13;;;;;;;8.10;7.40;;;17.60;99.90;;;;;;5054224;28;20425;-89
2021/08/24 06:47:40;;;;;;;7.77;7.07;;;17.50;99.90;;;;;;5059859;28;20467;-89
2021/08/24 06:50:08;;;;;;;10.30;8.10;;;17.40;99.90;;;;;;5073290;28;20451;-91
2021/08/24 06:52:36;;;;;;;8.20;7.40;;;17.40;99.90;;;;;;5083748;28;20451;-93
2021/08/24 06:55:05;;;;;;;7.67;6.83;;;17.30;99.90;;;;;;5075318;28;20790;-89
2021/08/24 06:57:32;;;;;;;6.80;6.20;;;17.30;99.90;;;;;;5063862;28;20550;-93
2021/08/24 07:00:00;;;;;;;7.97;7.27;;;17.40;99.90;;;;;;5077842;28;20967;-91
2021/08/24 07:02:26;;;;;;;7.17;6.57;;;17.60;99.90;;;;;;5076082;28;20447;-90
2021/08/24 07:04:53;;;;;;;9.60;6.70;;;17.60;99.90;;;;;;5077394;28;20827;-89
2021/08/24 07:07:20;;;;;;;7.20;6.43;;;17.70;99.90;;;;;;5085518;28;20452;-90
2021/08/24 07:09:48;;;;;;;6.67;6.07;;;17.90;99.90;;;;;;5084553;28;20548;-91
2021/08/24 07:12:15;;;;;;;6.80;6.13;;;17.60;99.90;;;;;;5056509;28;20444;-89
2021/08/24 07:14:41;;;;;;;5.60;5.10;;;17.50;99.90;;;;;;5056125;28;20479;-88
2021/08/24 07:17:08;;;;;;;6.73;6.03;;;17.30;99.90;;;;;;5057250;28;20836;-86
2021/08/24 07:19:35;;;;;;;6.20;5.60;;;17.20;99.90;;;;;;5053936;28;20445;-86
2021/08/24 07:22:02;;;;;;;6.00;5.43;;;17.10;99.90;;;;;;5053252;28;20435;-86
2021/08/24 07:24:29;;;;;;;5.93;5.43;;;17.10;99.90;;;;;;5055101;28;20825;-86
2021/08/24 07:27:00;;;;;;;6.30;5.70;;;17.00;99.90;;;;;;5054621;28;20486;-86
2021/08/24 07:29:29;;;;;;;6.37;5.77;;;17.10;99.90;;;;;;5045630;28;20455;-87
2021/08/24 07:31:56;;;;;;;9.03;6.90;;;17.10;99.90;;;;;;5074235;28;20447;-86
2021/08/24 07:34:23;;;;;;;7.67;6.53;;;17.10;99.90;;;;;;5074019;28;21013;-86
2021/08/24 07:36:50;;;;;;;5.93;5.43;;;17.10;99.90;;;;;;5074360;28;20472;-86
2021/08/24 07:39:18;;;;;;;7.27;6.57;;;17.20;99.90;;;;;;5073759;28;20448;-86
2021/08/24 07:41:47;;;;;;;8.00;7.30;;;17.30;99.90;;;;;;5074544;28;20456;-87
2021/08/24 07:44:25;;;;;;;8.10;7.17;;;17.30;99.90;;;;;;5086396;28;20474;-88
2021/08/24 07:47:00;;;;;;;7.60;6.90;;;17.40;99.90;;;;;;5088347;28;20534;-89
2021/08/24 07:52:25;;;;;;;7.10;6.50;;;17.70;99.90;;;;;;5064422;28;20458;-88
2021/08/24 07:55:43;;;;;;;6.80;6.20;;;17.90;99.90;;;;;;5072415;28;20485;-89
2021/08/24 07:58:24;;;;;;;7.23;5.67;;;18.20;99.90;;;;;;4985250;28;20547;-90
2021/08/24 08:00:57;;;;;;;5.27;4.77;;;19.10;99.90;;;;;;4979692;28;21015;-91
2021/08/24 08:03:29;;;;;;;6.20;5.47;;;20.10;99.90;;;;;;5044553;28;20454;-91
2021/08/24 08:05:56;;;;;;;5.70;5.20;;;20.50;99.90;;;;;;5070563;28;20526;-92
2021/08/24 08:08:24;;;;;;;9.40;5.50;;;20.20;99.90;;;;;;5065307;28;20530;-92
2021/08/24 08:10:56;;;;;;;7.23;6.00;;;20.10;99.90;;;;;;5062856;28;20453;-88
2021/08/24 08:13:23;;;;;;;7.23;5.30;;;20.00;99.90;;;;;;5065623;28;20506;-91
2021/08/24 08:15:51;;;;;;;6.73;6.13;;;19.90;99.90;;;;;;5059909;28;20982;-92
2021/08/24 08:18:42;;;;;;;5.47;4.97;;;19.80;99.90;;;;;;5060076;28;20471;-92
2021/08/24 08:21:10;;;;;;;5.10;4.70;;;19.90;99.90;;;;;;5061089;28;20512;-92
2021/08/24 08:23:39;;;;;;;7.87;5.50;;;20.00;99.90;;;;;;5059771;28;20482;-90
2021/08/24 08:26:06;;;;;;;6.17;5.10;;;20.00;99.90;;;;;;5050512;28;20452;-89
2021/08/24 08:28:33;;;;;;;5.50;5.00;;;20.20;99.90;;;;;;5059984;28;20483;-88
2021/08/24 08:31:01;;;;;;;5.90;4.97;;;20.10;99.90;;;;;;5079189;28;20444;-90
2021/08/24 08:33:28;;;;;;;9.50;4.83;;;20.10;99.90;;;;;;5073138;28;20433;-88
2021/08/24 08:35:54;;;;;;;4.20;3.90;;;20.60;99.90;;;;;;5062807;28;20480;-89
2021/08/24 08:38:23;;;;;;;5.23;4.30;;;21.60;99.00;;;;;;5056412;28;20465;-86
2021/08/24 08:40:54;;;;;;;4.97;4.47;;;22.50;97.20;;;;;;5059658;28;20449;-89
2021/08/24 08:43:32;;;;;;;4.77;4.37;;;23.00;96.10;;;;;;5061154;28;20454;-90
2021/08/24 08:46:11;;;;;;;6.00;4.87;;;23.10;94.40;;;;;;5057268;28;20943;-91
2021/08/24 08:51:38;;;;;;;6.30;5.23;;;22.40;94.50;;;;;;5060819;28;20440;-91
2021/08/24 08:54:17;;;;;;;5.40;4.23;;;21.90;94.80;;;;;;5058585;28;20453;-91
2021/08/24 08:57:01;;;;;;;5.63;4.53;;;21.30;96.00;;;;;;5061256;28;20464;-93
2021/08/24 08:59:37;;;;;;;5.13;4.63;;;21.10;97.00;;;;;;5059211;28;20453;-85
2021/08/24 09:02:35;;;;;;;4.80;3.87;;;20.90;97.60;;;;;;5061397;28;20429;-91
2021/08/24 09:09:18;;;;;;;4.23;3.80;;;20.00;98.60;;;;;;5058333;28;20789;-91
2021/08/24 09:15:18;;;;;;;6.60;4.70;;;20.00;99.90;;;;;;4977572;28;20524;-89
2021/08/24 09:18:03;;;;;;;5.13;4.60;;;20.00;99.90;;;;;;5048657;28;20485;-93
2021/08/24 09:20:35;;;;;;;4.10;3.80;;;19.80;99.90;;;;;;5058842;28;20981;-92
2021/08/24 09:23:03;;;;;;;4.87;4.40;;;19.60;99.90;;;;;;5062675;28;20451;-91
2021/08/24 09:25:38;;;;;;;4.37;3.97;;;19.40;99.90;;;;;;5060038;28;20497;-92
2021/08/24 09:28:11;;;;;;;4.20;3.80;;;19.50;99.90;;;;;;5062637;22;20545;-88
2021/08/24 09:30:43;;;;;;;4.50;4.10;;;19.50;99.90;;;;;;5016790;28;20532;-90
2021/08/24 09:33:13;;;;;;;4.03;3.63;;;19.60;99.90;;;;;;5019704;28;20428;-92
2021/08/24 09:35:45;;;;;;;5.17;4.00;;;19.70;99.90;;;;;;5038124;28;20493;-90
2021/08/24 09:38:16;;;;;;;4.30;3.97;;;19.70;99.90;;;;;;5044500;28;20486;-91
2021/08/24 09:40:46;;;;;;;4.70;3.73;;;19.60;99.80;;;;;;5057355;28;20433;-93
2021/08/24 09:43:25;;;;;;;4.90;4.50;;;19.50;99.90;;;;;;5053712;28;20459;-92
2021/08/24 09:45:59;;;;;;;7.47;4.37;;;19.30;99.90;;;;;;5055129;28;20481;-93
2021/08/24 09:48:29;;;;;;;5.23;4.73;;;19.30;99.90;;;;;;5045680;28;20468;-90
2021/08/24 09:51:18;;;;;;;4.30;3.90;;;19.20;99.90;;;;;;5048178;28;20461;-91
2021/08/24 09:53:45;;;;;;;4.67;4.27;;;18.90;99.90;;;;;;5050244;28;20441;-87
2021/08/24 09:56:14;;;;;;;4.63;4.20;;;19.10;99.90;;;;;;5045133;28;20490;-89
2021/08/24 09:58:46;;;;;;;4.80;4.27;;;19.30;99.90;;;;;;5036927;28;20525;-88
2021/08/24 10:01:15;;;;;;;5.63;4.30;;;19.40;99.90;;;;;;5035472;28;20505;-88
2021/08/24 10:03:45;;;;;;;5.53;3.60;;;19.50;99.90;;;;;;5043298;28;20500;-89
2021/08/24 10:06:25;;;;;;;4.87;4.47;;;19.70;99.90;;;;;;5055513;28;20455;-88
2021/08/24 10:08:55;;;;;;;4.53;4.13;;;19.80;99.70;;;;;;5042422;28;20464;-87
2021/08/24 10:11:28;;;;;;;6.50;4.57;;;20.00;99.50;;;;;;5041179;28;20447;-86
2021/08/24 10:14:10;;;;;;;6.90;4.70;;;19.80;99.90;;;;;;5035045;28;20452;-87
2021/08/24 10:16:41;;;;;;;4.40;4.00;;;19.60;99.90;;;;;;5034060;28;20487;-87
2021/08/24 10:19:17;;;;;;;4.10;3.80;;;19.40;99.90;;;;;;5035533;28;20513;-86
2021/08/24 10:21:53;;;;;;;4.57;4.27;;;19.40;99.90;;;;;;5039953;28;20826;-87
2021/08/24 10:24:25;;;;;;;4.80;4.40;;;19.50;99.90;;;;;;5034018;28;20474;-87
2021/08/24 10:26:55;;;;;;;5.13;4.17;;;19.80;99.90;;;;;;5035488;28;20946;-87
2021/08/24 10:29:26;;;;;;;4.80;3.97;;;20.00;99.50;;;;;;5034740;28;20456;-88
2021/08/24 10:31:57;;;;;;;4.53;3.93;;;20.10;99.70;;;;;;5035420;28;20935;-87
2021/08/24 10:34:34;;;;;;;4.27;3.97;;;20.10;99.30;;;;;;5035939;28;20487;-87
2021/08/24 10:37:30;;;;;;;4.90;4.33;;;20.10;99.20;;;;;;5048509;28;20431;-90
2021/08/24 10:40:17;;;;;;;6.43;4.13;;;20.00;99.50;;;;;;5045790;28;20457;-87
2021/08/24 10:43:03;;;;;;;4.57;4.03;;;20.10;99.70;;;;;;5057416;28;20450;-89
2021/08/24 10:45:34;;;;;;;5.43;4.33;;;20.20;99.50;;;;;;5042396;28;20798;-88
2021/08/24 10:48:03;;;;;;;5.33;4.47;;;20.10;99.40;;;;;;5034840;28;20851;-88
2021/08/24 10:50:40;;;;;;;4.70;4.37;;;19.90;99.80;;;;;;5035726;28;20452;-89
2021/08/24 10:53:17;;;;;;;4.53;4.13;;;20.20;99.80;;;;;;5043964;28;20450;-88
2021/08/24 10:55:49;;;;;;;5.97;4.27;;;20.50;99.10;;;;;;5041844;28;20504;-88
2021/08/24 10:58:22;;;;;;;4.47;4.17;;;20.70;98.90;;;;;;5033032;28;20476;-88
2021/08/24 11:00:59;;;;;;;4.60;4.03;;;20.80;98.50;;;;;;5033242;28;20449;-88
2021/08/24 11:03:47;;;;;;;4.23;3.60;;;20.80;98.20;;;;;;5033009;28;20922;-88
2021/08/24 11:06:24;;;;;;;10.30;4.50;;;20.10;98.40;;;;;;5032631;28;20444;-88
2021/08/24 11:09:00;;;;;;;5.50;4.10;;;19.90;99.70;;;;;;5032876;28;20475;-88
2021/08/24 11:11:41;;;;;;;4.33;3.93;;;19.50;99.90;;;;;;5032816;28;20474;-88
2021/08/24 11:14:17;;;;;;;4.50;4.20;;;19.40;99.90;;;;;;5034978;28;20513;-89
2021/08/24 11:16:56;;;;;;;4.17;3.77;;;19.40;99.90;;;;;;5053606;28;20484;-89
2021/08/24 11:19:39;;;;;;;5.87;4.57;;;19.10;99.90;;;;;;5045919;28;20446;-88
2021/08/24 11:22:17;;;;;;;3.90;3.60;;;19.20;99.90;;;;;;5034918;28;20445;-88
2021/08/24 11:24:57;;;;;;;4.03;3.73;;;19.20;99.90;;;;;;5035871;28;20455;-88
2021/08/24 11:27:30;;;;;;;4.80;4.20;;;19.60;99.90;;;;;;5036471;28;20490;-91
2021/08/24 11:30:01;;;;;;;4.40;4.00;;;19.80;99.90;;;;;;5054278;28;20439;-91
2021/08/24 11:32:32;;;;;;;4.80;4.40;;;20.00;99.90;;;;;;5054674;28;20466;-91
2021/08/24 11:35:04;;;;;;;5.30;4.80;;;20.10;99.90;;;;;;5043300;28;20447;-90
2021/08/24 11:37:36;;;;;;;4.57;4.17;;;20.10;99.90;;;;;;5051614;28;20454;-90
2021/08/24 11:40:10;;;;;;;4.37;3.97;;;20.10;99.90;;;;;;5057252;28;20437;-93
2021/08/24 11:42:42;;;;;;;4.40;4.10;;;20.10;99.90;;;;;;5048938;28;20460;-93
2021/08/24 12:04:04;;;;;;;5.10;4.60;;;20.20;99.90;;;;;;4360177;22;20536;-92
2021/08/24 12:06:42;;;;;;;5.67;5.07;;;20.50;99.90;;;;;;5034146;22;20514;-91
2021/08/24 12:09:36;;;;;;;5.03;4.37;;;20.50;99.90;;;;;;5317623;22;20504;-91
2021/08/24 12:12:25;;;;;;;5.40;4.90;;;20.80;99.90;;;;;;5013435;28;20453;-91
2021/08/24 12:17:44;;;;;;;5.17;4.30;;;21.70;99.40;;;;;;5018747;28;20502;-90
2021/08/24 12:20:32;;;;;;;4.83;4.33;;;22.60;97.70;;;;;;5006625;28;20439;-90
2021/08/24 12:23:04;;;;;;;5.57;5.03;;;22.70;96.30;;;;;;5006514;28;20467;-91
2021/08/24 12:25:37;;;;;;;4.87;4.33;;;22.60;96.30;;;;;;5002995;28;20447;-91
2021/08/24 12:28:33;;;;;;;5.60;5.10;;;22.20;96.30;;;;;;5001580;28;20541;-90
2021/08/24 12:31:30;;;;;;;5.20;4.70;;;22.00;97.50;;;;;;5009661;28;20469;-90
2021/08/24 12:34:24;;;;;;;6.23;5.10;;;21.90;97.60;;;;;;5020248;28;20439;-92
2021/08/24 12:37:01;;;;;;;5.03;4.50;;;21.60;97.80;;;;;;5005377;28;20563;-90
2021/08/24 12:39:45;;;;;;;5.43;4.77;;;21.30;98.20;;;;;;5002459;28;20458;-91
2021/08/24 12:42:30;;;;;;;5.00;4.50;;;21.00;98.80;;;;;;5015885;28;20443;-92
2021/08/24 12:45:23;;;;;;;4.83;4.43;;;20.60;99.40;;;;;;5018590;28;20443;-90
2021/08/24 12:48:15;;;;;;;5.50;4.23;;;20.40;99.90;;;;;;5009140;28;20475;-90
2021/08/24 12:51:07;;;;;;;4.80;4.40;;;20.20;99.90;;;;;;5010562;28;20462;-89
2021/08/24 12:53:52;;;;;;;5.23;4.73;;;20.00;99.90;;;;;;4989341;28;20450;-90
2021/08/24 12:57:09;;;;;;;7.17;5.27;;;19.90;99.90;;;;;;5005696;28;20516;-90
2021/08/24 13:02:58;;;;;;;5.60;5.10;;;20.00;99.90;;;;;;5019280;28;20448;-91
2021/08/24 13:05:29;;;;;;;5.57;4.97;;;20.00;99.90;;;;;;5006492;28;20455;-90
2021/08/24 13:08:14;;;;;;;4.47;4.07;;;19.90;99.90;;;;;;5009129;28;20469;-90
2021/08/24 13:14:10;;;;;;;5.63;5.23;;;20.00;99.90;;;;;;5010485;28;20444;-92
2021/08/24 13:16:53;;;;;;;4.80;4.40;;;20.20;99.90;;;;;;5012348;28;20515;-91
2021/08/24 13:19:27;;;;;;;5.30;4.80;;;20.60;99.90;;;;;;5012056;28;20447;-90
2021/08/24 13:21:59;;;;;;;5.30;4.60;;;21.10;99.90;;;;;;5011910;28;20502;-91
2021/08/24 13:24:32;;;;;;;4.90;4.50;;;21.40;99.70;;;;;;5013281;28;20934;-91
2021/08/24 13:27:16;;;;;;;5.37;4.87;;;21.40;99.00;;;;;;5005363;28;20501;-90
2021/08/24 13:29:47;;;;;;;3.60;3.30;;;21.20;99.20;;;;;;5006798;28;20446;-91
2021/08/24 13:32:28;;;;;;;4.40;4.10;;;20.90;99.20;;;;;;5006822;28;20458;-90
2021/08/24 13:34:56;;;;;;;5.20;4.70;;;20.80;99.70;;;;;;5006084;28;20462;-90
2021/08/24 13:37:37;;;;;;;4.30;3.90;;;20.70;99.90;;;;;;5004330;28;20950;-91
2021/08/24 13:40:08;;;;;;;3.70;3.50;;;20.70;99.90;;;;;;5003831;28;20454;-90
2021/08/24 13:42:44;;;;;;;4.97;4.53;;;20.70;99.90;;;;;;5005504;28;20836;-89
2021/08/24 13:45:20;;;;;;;4.43;4.13;;;20.70;99.90;;;;;;5003495;28;20474;-91
2021/08/24 13:50:44;;;;;;;4.67;4.30;;;20.90;99.90;;;;;;5011767;28;20419;-91
2021/08/24 13:53:18;;;;;;;4.80;4.40;;;20.80;99.90;;;;;;5002655;28;20436;-90
2021/08/24 13:55:55;;;;;;;6.33;5.07;;;20.90;99.90;;;;;;5002471;28;20482;-91
2021/08/24 13:58:28;;;;;;;4.70;4.23;;;21.00;99.80;;;;;;4996794;28;20558;-90
2021/08/24 14:01:05;;;;;;;5.63;5.13;;;21.10;99.50;;;;;;5000334;28;20877;-90